YBCGYCAS

Guest
Details From YBCG - Gold Coast International
To YCAS - Casino
Flight Number -
Tags generated
Created
Modified
Stats Distance 49 nm / 91 km
Max Altitude 0 ft / 0 m
Waypoints 3
Social Downloads 0
Likes 0
Share VATSIM

Download

Looking for another format? Having issues loading an existing format? Contact us
Advertisement - Login to hide

Notes

Basic altitude profile: - Ascent Rate: 500ft/min - Ascent Speed: 74kts - Cruise Altitude: 35000ft - Cruise Speed: 115kts - Descent Rate: 500ft/min - Descent Speed: 120kts Options: - Use NATs: yes - Use PACOTS: yes - Use low airways: yes - Use high airways: no

Route

YBCG CG YCAS

ID Type Via Altitude Latitude Longitude Leg Dist Tot Dist Heading (true) Name
O YBCG APT - 0 ft / 0 m -28.16604˚ 153.50616˚ - 0 nm - Gold Coast International
CG VOR - 0 ft / 0 m -28.16889˚ 153.50389˚ 0 nm 0 nm 215° / 215° COOLANGATTA VOR-DME
O YCAS APT - 0 ft / 0 m -28.88031˚ 153.05758˚ 48 nm 48 nm 209° / 209° Casino

Altitude Profile

Advertisement - Login to hide

YBCG

Details ICAO YBCG (OOL)
Name Gold Coast International
Region Australia
Timezone Australia/Brisbane (UTC+10.0)
Stats Elevation 20 ft / 6 m (AMSL)
Location -28.166035° 153.506155°
Runways 2
Magnetic Variation 11.330° E

METAR

YBCG 110900Z AUTO 17010KT 9999 // NCD 22/15 Q1016 RF00.0/000.0

Decode

TAF

TAF TAF YBCG 110533Z 1106/1206 15017KT 9999 FEW035 FM110900 17005KT 9999 SCT030 FM111400 19008KT 9999 FEW020 BKN040 FM112200 16014KT 9999 -SHRA FEW020 SCT035 FM120300 15014KT 9999 FEW030

Decode

Departure Runways

ID Width Length Bearing (true) Bearing (mag) Surface Threshold Offset Overrun Length
14 148 ft / 45 m 7,687 ft / 2,343 m 150.04° 138.71° Asphalt 0 ft / 0 m 394 ft / 120 m
17 59 ft / 18 m 1,911 ft / 582 m 184.00° 172.67° Asphalt 0 ft / 0 m 0 ft / 0 m
32 148 ft / 45 m 7,687 ft / 2,343 m 330.04° 318.71° Asphalt 0 ft / 0 m 394 ft / 120 m
35 59 ft / 18 m 1,911 ft / 582 m 4.00° 352.67° Asphalt 0 ft / 0 m 0 ft / 0 m

YCAS

Details ICAO YCAS
Name Casino
Region Australia
Timezone Australia/Sydney (UTC+11.0)
Stats Elevation 85 ft / 26 m (AMSL)
Location -28.880314° 153.057584°
Runways 3
Magnetic Variation 11.425° E

METAR

YCAS 110900Z AUTO 13007KT //// // ////// 20/15 Q1018

Decode

TAF

Not found

Destination Runways

ID Width Length Bearing (true) Bearing (mag) Surface Threshold Offset Overrun Length
10 98 ft / 30 m 3,599 ft / 1,097 m 105.56° 94.13° Asphalt 0 ft / 0 m 863 ft / 263 m
10C 98 ft / 30 m 730 ft / 223 m 105.54° 94.11° Asphalt 0 ft / 0 m 0 ft / 0 m
10L 151 ft / 46 m 2,738 ft / 835 m 105.55° 94.12° Grass 0 ft / 0 m 0 ft / 0 m
28 98 ft / 30 m 3,599 ft / 1,097 m 285.56° 274.13° Asphalt 0 ft / 0 m 0 ft / 0 m
28C 98 ft / 30 m 730 ft / 223 m 285.53° 274.10° Asphalt 0 ft / 0 m 0 ft / 0 m
28R 151 ft / 46 m 2,738 ft / 835 m 285.55° 274.12° Grass 0 ft / 0 m 0 ft / 0 m